Qena, Egypt
Current Conditions -  °F | °C
As of 6:00 PM on Sunday 23 Nov 2014 (Local Time) from HELX Reporting Station
Clear Clear  
Wind Chill: 21°   Ceiling: Unl
Heat Index: 21°   Visibility: 6mi
Dew Point: 12°   Wind: 7mph
Humidity: 56%   Direction: 300°WNW
Pressure: 29.94"   Gusts: NA
Location:  26.15°N, 32.72°E
Report Text: HELX 231600Z 30006KT CAVOK 21/12 Q1014 NOSIG
Loading
Personal Weather Stations






























Interactive Weather Map New forecast layout! Learn more

10-Day Weather Forecast

Advertisements
Track Severe Weather on mobile